createdAt,value
2023-03-31T00:09:19.257Z,91.33
2023-03-31T00:19:21.452Z,91.48
2023-03-31T00:29:26.401Z,90.42
2023-03-31T00:39:54.088Z,90.82
2023-03-31T00:49:57.837Z,90.95
2023-03-31T01:00:17.513Z,89.84
2023-03-31T01:10:19.773Z,89.54
2023-03-31T01:20:36.967Z,89.96
2023-03-31T01:31:19.138Z,89.95
2023-03-31T01:41:54.185Z,89.52
2023-03-31T01:52:24.907Z,90.71
2023-03-31T02:02:32.699Z,90.16
2023-03-31T02:12:36.438Z,90.59
2023-03-31T02:22:51.301Z,90.41
2023-03-31T02:32:58.270Z,89.85
2023-03-31T02:43:04.189Z,89.61
2023-03-31T02:53:53.527Z,90.00
2023-03-31T03:04:39.259Z,90.10
2023-03-31T03:15:19.451Z,91.72
2023-03-31T03:25:30.553Z,91.90
2023-03-31T03:35:35.205Z,93.24
2023-03-31T03:45:37.156Z,93.64
2023-03-31T03:55:39.316Z,93.79
2023-03-31T04:05:42.777Z,94.28
2023-03-31T04:15:46.816Z,93.22
2023-03-31T04:25:50.246Z,94.27
2023-03-31T04:35:52.898Z,94.25
2023-03-31T04:46:06.424Z,94.62
2023-03-31T04:56:08.721Z,93.71
2023-03-31T05:06:12.496Z,94.00
2023-03-31T05:16:17.920Z,93.50
2023-03-31T05:26:31.074Z,92.49
2023-03-31T05:36:41.278Z,93.24
2023-03-31T05:46:50.231Z,91.78
2023-03-31T05:57:00.829Z,90.40
2023-03-31T06:07:03.007Z,89.15
2023-03-31T06:17:29.845Z,88.63
2023-03-31T06:27:31.950Z,86.12
2023-03-31T06:37:40.068Z,85.27
2023-03-31T06:47:42.196Z,84.42
2023-03-31T06:57:44.232Z,83.57
2023-03-31T07:07:47.269Z,80.30
2023-03-31T07:17:54.343Z,79.52
2023-03-31T07:27:58.456Z,78.91
2023-03-31T07:38:00.569Z,78.08
2023-03-31T07:48:18.932Z,77.12
2023-03-31T07:58:29.857Z,77.23
2023-03-31T08:08:32.789Z,75.84
2023-03-31T08:18:35.063Z,74.78
2023-03-31T08:28:37.149Z,73.51
2023-03-31T08:38:41.993Z,70.95
2023-03-31T08:48:57.481Z,69.43
2023-03-31T08:59:02.490Z,67.38
2023-03-31T09:09:10.769Z,68.25
2023-03-31T09:19:37.031Z,68.84
2023-03-31T09:29:50.002Z,67.27
2023-03-31T09:39:52.062Z,64.47
2023-03-31T09:49:54.698Z,65.47
2023-03-31T10:00:17.162Z,63.77
2023-03-31T10:10:33.758Z,64.39
2023-03-31T10:20:44.429Z,64.21
2023-03-31T10:31:01.622Z,62.27
2023-03-31T10:41:04.619Z,61.03
2023-03-31T10:51:19.207Z,60.36
2023-03-31T11:01:45.803Z,58.52
2023-03-31T11:12:04.152Z,59.15
2023-03-31T11:22:30.440Z,59.27
2023-03-31T11:33:08.126Z,57.55
2023-03-31T11:43:26.186Z,56.55
2023-03-31T11:53:34.284Z,57.00
2023-03-31T12:04:07.254Z,57.19
2023-03-31T12:14:41.829Z,56.13
2023-03-31T12:24:47.002Z,52.95
2023-03-31T12:34:57.990Z,53.18
2023-03-31T12:45:29.168Z,52.99
2023-03-31T12:55:48.013Z,53.92
2023-03-31T13:05:50.141Z,54.51
2023-03-31T13:15:57.272Z,54.71
2023-03-31T13:26:00.916Z,53.85
2023-03-31T13:36:13.656Z,53.92
2023-03-31T13:46:31.888Z,53.79
2023-03-31T13:56:38.682Z,54.72
2023-03-31T14:06:45.048Z,53.86
2023-03-31T14:16:58.658Z,54.37
2023-03-31T14:27:18.894Z,54.79
2023-03-31T14:37:23.153Z,54.97
2023-03-31T14:47:36.752Z,55.02
2023-03-31T14:57:41.653Z,58.60
2023-03-31T15:07:43.760Z,56.19
2023-03-31T15:17:47.529Z,69.31
2023-03-31T15:28:11.916Z,76.10
2023-03-31T15:38:18.881Z,78.38
2023-03-31T15:48:39.056Z,77.35
2023-03-31T15:59:16.401Z,76.08
2023-03-31T16:09:44.421Z,75.59
2023-03-31T16:20:02.065Z,74.96
2023-03-31T16:30:21.379Z,74.67
2023-03-31T16:40:23.509Z,73.01
2023-03-31T16:50:25.749Z,74.09
2023-03-31T17:00:29.110Z,74.46
2023-03-31T17:10:31.528Z,73.46
2023-03-31T17:20:35.007Z,76.12
2023-03-31T17:30:39.794Z,83.14
2023-03-31T17:40:46.126Z,89.16
2023-03-31T17:50:48.392Z,92.69
2023-03-31T18:00:53.785Z,94.90
2023-03-31T18:10:56.614Z,94.14
2023-03-31T18:21:05.242Z,95.64
2023-03-31T18:31:10.583Z,96.34
2023-03-31T18:41:14.081Z,96.25
2023-03-31T18:51:20.149Z,96.88
2023-03-31T19:01:25.082Z,96.86
2023-03-31T19:11:31.536Z,96.56
2023-03-31T19:21:37.202Z,95.86
2023-03-31T19:31:42.163Z,95.26
2023-03-31T19:41:45.644Z,94.63
2023-03-31T19:51:48.515Z,97.17
2023-03-31T20:01:53.504Z,98.60
2023-03-31T20:11:57.769Z,97.14
2023-03-31T20:22:02.768Z,97.07
2023-03-31T20:32:06.568Z,96.71
2023-03-31T20:42:08.899Z,96.30
2023-03-31T20:52:15.071Z,97.11
2023-03-31T21:02:22.893Z,98.01
2023-03-31T21:12:27.741Z,98.29
2023-03-31T21:22:35.015Z,98.63
2023-03-31T21:32:44.558Z,99.20
2023-03-31T21:42:48.510Z,98.86
2023-03-31T21:52:50.677Z,99.55
2023-03-31T22:03:22.160Z,99.06
2023-03-31T22:13:25.768Z,100.00
2023-03-31T22:23:27.980Z,100.00
2023-03-31T22:33:31.967Z,100.00
2023-03-31T22:43:34.416Z,100.00
2023-03-31T22:53:37.709Z,100.00
2023-03-31T23:03:39.655Z,100.00
2023-03-31T23:13:43.814Z,100.00
2023-03-31T23:23:46.776Z,100.00
2023-03-31T23:33:49.084Z,100.00
2023-03-31T23:43:51.513Z,100.00
2023-03-31T23:53:58.982Z,100.00
